sensor_id;sensor_type;location;lat;lon;timestamp;temperature;humidity
23713;DHT22;12035;49.978;8.298;2023-04-03T00:01:16;8.30;61.10
23713;DHT22;12035;49.978;8.298;2023-04-03T00:06:18;8.30;60.70
23713;DHT22;12035;49.978;8.298;2023-04-03T00:11:18;8.40;60.70
23713;DHT22;12035;49.978;8.298;2023-04-03T00:16:16;8.40;60.80
23713;DHT22;12035;49.978;8.298;2023-04-03T00:21:13;8.40;60.30
23713;DHT22;12035;49.978;8.298;2023-04-03T00:26:11;8.40;60.30
23713;DHT22;12035;49.978;8.298;2023-04-03T00:31:10;8.40;60.10
23713;DHT22;12035;49.978;8.298;2023-04-03T00:36:08;8.40;60.30
23713;DHT22;12035;49.978;8.298;2023-04-03T00:41:07;8.40;60.40
23713;DHT22;12035;49.978;8.298;2023-04-03T00:46:04;8.40;60.40
23713;DHT22;12035;49.978;8.298;2023-04-03T00:51:04;8.40;60.30
23713;DHT22;12035;49.978;8.298;2023-04-03T00:56:06;8.50;60.40
23713;DHT22;12035;49.978;8.298;2023-04-03T01:01:08;8.40;60.40
23713;DHT22;12035;49.978;8.298;2023-04-03T01:06:09;8.40;60.40
23713;DHT22;12035;49.978;8.298;2023-04-03T01:11:06;8.40;60.40
23713;DHT22;12035;49.978;8.298;2023-04-03T01:16:04;8.40;60.50
23713;DHT22;12035;49.978;8.298;2023-04-03T01:21:37;8.40;60.40
23713;DHT22;12035;49.978;8.298;2023-04-03T01:27:04;8.30;60.40
23713;DHT22;12035;49.978;8.298;2023-04-03T01:32:04;8.30;60.40
23713;DHT22;12035;49.978;8.298;2023-04-03T01:37:02;8.30;60.40
23713;DHT22;12035;49.978;8.298;2023-04-03T01:41:59;8.30;60.50
23713;DHT22;12035;49.978;8.298;2023-04-03T01:46:56;8.20;60.60
23713;DHT22;12035;49.978;8.298;2023-04-03T01:51:54;8.20;60.80
23713;DHT22;12035;49.978;8.298;2023-04-03T01:56:52;8.10;60.80
23713;DHT22;12035;49.978;8.298;2023-04-03T02:01:49;8.10;60.90
23713;DHT22;12035;49.978;8.298;2023-04-03T02:06:46;8.10;60.90
23713;DHT22;12035;49.978;8.298;2023-04-03T02:11:45;8.10;61.10
23713;DHT22;12035;49.978;8.298;2023-04-03T02:16:42;8.10;61.30
23713;DHT22;12035;49.978;8.298;2023-04-03T02:21:39;8.10;61.40
23713;DHT22;12035;49.978;8.298;2023-04-03T02:26:36;8.10;61.60
23713;DHT22;12035;49.978;8.298;2023-04-03T02:31:34;8.10;61.70
23713;DHT22;12035;49.978;8.298;2023-04-03T02:36:32;8.10;62.00
23713;DHT22;12035;49.978;8.298;2023-04-03T02:41:29;8.00;62.00
23713;DHT22;12035;49.978;8.298;2023-04-03T02:46:31;8.00;62.10
23713;DHT22;12035;49.978;8.298;2023-04-03T02:51:29;8.00;62.40
23713;DHT22;12035;49.978;8.298;2023-04-03T02:56:26;7.90;62.70
23713;DHT22;12035;49.978;8.298;2023-04-03T03:01:23;7.90;62.90
23713;DHT22;12035;49.978;8.298;2023-04-03T03:06:22;7.90;63.30
23713;DHT22;12035;49.978;8.298;2023-04-03T03:11:20;7.80;63.40
23713;DHT22;12035;49.978;8.298;2023-04-03T03:16:17;7.90;63.60
23713;DHT22;12035;49.978;8.298;2023-04-03T03:21:15;7.90;64.50
23713;DHT22;12035;49.978;8.298;2023-04-03T03:26:12;7.90;63.80
23713;DHT22;12035;49.978;8.298;2023-04-03T03:31:11;7.90;64.70
23713;DHT22;12035;49.978;8.298;2023-04-03T03:36:08;7.80;64.20
23713;DHT22;12035;49.978;8.298;2023-04-03T03:41:06;7.80;64.30
23713;DHT22;12035;49.978;8.298;2023-04-03T03:46:03;7.80;64.40
23713;DHT22;12035;49.978;8.298;2023-04-03T03:51:01;7.80;64.50
23713;DHT22;12035;49.978;8.298;2023-04-03T03:55:59;7.60;64.40
23713;DHT22;12035;49.978;8.298;2023-04-03T04:00:56;7.60;64.40
23713;DHT22;12035;49.978;8.298;2023-04-03T04:05:53;7.40;63.10
23713;DHT22;12035;49.978;8.298;2023-04-03T04:10:51;7.40;62.50
23713;DHT22;12035;49.978;8.298;2023-04-03T04:15:48;7.20;61.50
23713;DHT22;12035;49.978;8.298;2023-04-03T04:20:45;7.10;61.50
23713;DHT22;12035;49.978;8.298;2023-04-03T04:25:44;7.00;60.80
23713;DHT22;12035;49.978;8.298;2023-04-03T04:30:43;7.00;61.10
23713;DHT22;12035;49.978;8.298;2023-04-03T04:35:42;6.90;60.90
23713;DHT22;12035;49.978;8.298;2023-04-03T04:40:39;6.90;61.30
23713;DHT22;12035;49.978;8.298;2023-04-03T04:45:37;6.80;61.50
23713;DHT22;12035;49.978;8.298;2023-04-03T04:50:35;6.80;61.80
23713;DHT22;12035;49.978;8.298;2023-04-03T04:55:32;6.70;62.10
23713;DHT22;12035;49.978;8.298;2023-04-03T05:00:29;6.60;61.40
23713;DHT22;12035;49.978;8.298;2023-04-03T05:05:26;6.60;61.50
23713;DHT22;12035;49.978;8.298;2023-04-03T05:10:25;6.50;61.70
23713;DHT22;12035;49.978;8.298;2023-04-03T05:15:22;6.40;62.00
23713;DHT22;12035;49.978;8.298;2023-04-03T05:20:19;6.30;62.20
23713;DHT22;12035;49.978;8.298;2023-04-03T05:25:16;6.30;62.50
23713;DHT22;12035;49.978;8.298;2023-04-03T05:30:15;6.20;62.70
23713;DHT22;12035;49.978;8.298;2023-04-03T05:35:13;6.20;63.00
23713;DHT22;12035;49.978;8.298;2023-04-03T05:40:10;6.10;63.00
23713;DHT22;12035;49.978;8.298;2023-04-03T05:45:08;6.10;64.10
23713;DHT22;12035;49.978;8.298;2023-04-03T05:50:08;6.10;63.50
23713;DHT22;12035;49.978;8.298;2023-04-03T05:55:06;6.20;63.50
23713;DHT22;12035;49.978;8.298;2023-04-03T06:00:05;6.30;64.30
23713;DHT22;12035;49.978;8.298;2023-04-03T06:05:03;6.30;63.40
23713;DHT22;12035;49.978;8.298;2023-04-03T06:10:03;6.40;63.00
23713;DHT22;12035;49.978;8.298;2023-04-03T06:15:02;6.40;63.00
23713;DHT22;12035;49.978;8.298;2023-04-03T06:20:01;6.40;63.10
23713;DHT22;12035;49.978;8.298;2023-04-03T06:24:59;6.50;63.00
23713;DHT22;12035;49.978;8.298;2023-04-03T06:29:57;6.90;64.50
23713;DHT22;12035;49.978;8.298;2023-04-03T06:34:54;7.50;63.70
23713;DHT22;12035;49.978;8.298;2023-04-03T06:39:52;8.20;62.90
23713;DHT22;12035;49.978;8.298;2023-04-03T06:44:50;9.10;60.70
23713;DHT22;12035;49.978;8.298;2023-04-03T06:49:48;9.70;59.50
23713;DHT22;12035;49.978;8.298;2023-04-03T06:54:45;10.40;55.80
23713;DHT22;12035;49.978;8.298;2023-04-03T06:59:42;11.00;55.50
23713;DHT22;12035;49.978;8.298;2023-04-03T07:04:40;11.60;54.50
23713;DHT22;12035;49.978;8.298;2023-04-03T07:09:39;12.00;53.00
23713;DHT22;12035;49.978;8.298;2023-04-03T07:14:36;12.40;51.20
23713;DHT22;12035;49.978;8.298;2023-04-03T07:19:33;12.60;50.90
23713;DHT22;12035;49.978;8.298;2023-04-03T07:24:30;12.80;49.70
23713;DHT22;12035;49.978;8.298;2023-04-03T07:29:28;12.90;49.00
23713;DHT22;12035;49.978;8.298;2023-04-03T07:34:25;13.00;49.30
23713;DHT22;12035;49.978;8.298;2023-04-03T07:39:23;13.10;48.50
23713;DHT22;12035;49.978;8.298;2023-04-03T07:44:20;13.00;48.10
23713;DHT22;12035;49.978;8.298;2023-04-03T07:49:18;13.10;47.80
23713;DHT22;12035;49.978;8.298;2023-04-03T07:54:18;13.20;47.30
23713;DHT22;12035;49.978;8.298;2023-04-03T07:59:15;13.10;47.10
23713;DHT22;12035;49.978;8.298;2023-04-03T08:04:13;13.20;47.60
23713;DHT22;12035;49.978;8.298;2023-04-03T08:09:12;13.30;46.70
23713;DHT22;12035;49.978;8.298;2023-04-03T08:14:11;13.10;46.70
23713;DHT22;12035;49.978;8.298;2023-04-03T08:19:11;13.00;46.00
23713;DHT22;12035;49.978;8.298;2023-04-03T08:24:12;12.90;46.60
23713;DHT22;12035;49.978;8.298;2023-04-03T08:29:09;12.90;47.20
23713;DHT22;12035;49.978;8.298;2023-04-03T08:34:06;12.90;46.90
23713;DHT22;12035;49.978;8.298;2023-04-03T08:39:04;12.80;47.00
23713;DHT22;12035;49.978;8.298;2023-04-03T08:44:11;12.90;47.10
23713;DHT22;12035;49.978;8.298;2023-04-03T08:49:19;13.00;46.70
23713;DHT22;12035;49.978;8.298;2023-04-03T08:54:27;12.90;46.80
23713;DHT22;12035;49.978;8.298;2023-04-03T08:59:31;12.80;47.00
23713;DHT22;12035;49.978;8.298;2023-04-03T09:04:31;12.80;47.00
23713;DHT22;12035;49.978;8.298;2023-04-03T09:09:32;12.70;46.60
23713;DHT22;12035;49.978;8.298;2023-04-03T09:14:41;12.70;47.00
23713;DHT22;12035;49.978;8.298;2023-04-03T09:19:45;12.70;47.00
23713;DHT22;12035;49.978;8.298;2023-04-03T09:24:52;12.60;46.10
23713;DHT22;12035;49.978;8.298;2023-04-03T09:29:55;12.50;46.50
23713;DHT22;12035;49.978;8.298;2023-04-03T09:34:54;12.40;45.60
23713;DHT22;12035;49.978;8.298;2023-04-03T09:39:53;12.40;46.40
23713;DHT22;12035;49.978;8.298;2023-04-03T09:44:55;12.20;45.60
23713;DHT22;12035;49.978;8.298;2023-04-03T09:50:10;12.10;46.30
23713;DHT22;12035;49.978;8.298;2023-04-03T09:55:18;12.00;46.90
23713;DHT22;12035;49.978;8.298;2023-04-03T10:00:25;11.90;45.90
23713;DHT22;12035;49.978;8.298;2023-04-03T10:05:31;11.80;46.00
23713;DHT22;12035;49.978;8.298;2023-04-03T10:10:29;11.50;46.90
23713;DHT22;12035;49.978;8.298;2023-04-03T10:15:28;11.30;47.20
23713;DHT22;12035;49.978;8.298;2023-04-03T10:20:35;11.20;47.40
23713;DHT22;12035;49.978;8.298;2023-04-03T10:25:39;11.20;47.40
23713;DHT22;12035;49.978;8.298;2023-04-03T10:30:48;11.10;47.60
23713;DHT22;12035;49.978;8.298;2023-04-03T10:35:53;11.00;47.60
23713;DHT22;12035;49.978;8.298;2023-04-03T10:41:02;11.00;47.60
23713;DHT22;12035;49.978;8.298;2023-04-03T10:46:06;10.80;47.20
23713;DHT22;12035;49.978;8.298;2023-04-03T10:51:34;10.70;47.50
23713;DHT22;12035;49.978;8.298;2023-04-03T10:56:38;10.70;47.50
23713;DHT22;12035;49.978;8.298;2023-04-03T11:01:42;10.70;47.40
23713;DHT22;12035;49.978;8.298;2023-04-03T11:06:46;10.80;47.60
23713;DHT22;12035;49.978;8.298;2023-04-03T11:11:45;10.80;47.30
23713;DHT22;12035;49.978;8.298;2023-04-03T11:16:48;10.90;47.00
23713;DHT22;12035;49.978;8.298;2023-04-03T11:21:54;10.90;46.60
23713;DHT22;12035;49.978;8.298;2023-04-03T11:26:54;10.90;46.20
23713;DHT22;12035;49.978;8.298;2023-04-03T11:32:10;10.90;46.10
23713;DHT22;12035;49.978;8.298;2023-04-03T11:37:21;10.90;46.40
23713;DHT22;12035;49.978;8.298;2023-04-03T11:42:31;11.10;46.20
23713;DHT22;12035;49.978;8.298;2023-04-03T11:47:47;11.20;46.60
23713;DHT22;12035;49.978;8.298;2023-04-03T11:52:57;11.20;45.50
23713;DHT22;12035;49.978;8.298;2023-04-03T11:58:10;11.20;44.80
23713;DHT22;12035;49.978;8.298;2023-04-03T12:03:32;11.20;44.80
23713;DHT22;12035;49.978;8.298;2023-04-03T12:08:45;11.20;45.50
23713;DHT22;12035;49.978;8.298;2023-04-03T12:14:02;11.20;44.40
23713;DHT22;12035;49.978;8.298;2023-04-03T12:19:03;11.20;44.70
23713;DHT22;12035;49.978;8.298;2023-04-03T12:24:25;11.40;44.40
23713;DHT22;12035;49.978;8.298;2023-04-03T12:29:27;11.30;43.20
23713;DHT22;12035;49.978;8.298;2023-04-03T12:34:42;11.40;43.30
23713;DHT22;12035;49.978;8.298;2023-04-03T12:39:54;11.50;41.80
23713;DHT22;12035;49.978;8.298;2023-04-03T12:45:03;11.50;42.10
23713;DHT22;12035;49.978;8.298;2023-04-03T12:50:22;11.50;42.70
23713;DHT22;12035;49.978;8.298;2023-04-03T12:55:20;11.50;41.10
23713;DHT22;12035;49.978;8.298;2023-04-03T13:00:31;11.50;41.10
23713;DHT22;12035;49.978;8.298;2023-04-03T13:05:35;11.50;41.80
23713;DHT22;12035;49.978;8.298;2023-04-03T13:10:45;11.60;41.20
23713;DHT22;12035;49.978;8.298;2023-04-03T13:15:47;11.60;40.70
23713;DHT22;12035;49.978;8.298;2023-04-03T13:20:48;11.50;40.30
23713;DHT22;12035;49.978;8.298;2023-04-03T13:25:46;11.40;40.30
23713;DHT22;12035;49.978;8.298;2023-04-03T13:30:56;11.30;41.20
23713;DHT22;12035;49.978;8.298;2023-04-03T13:36:02;11.30;41.70
23713;DHT22;12035;49.978;8.298;2023-04-03T13:41:03;11.20;41.10
23713;DHT22;12035;49.978;8.298;2023-04-03T13:46:20;11.20;40.60
23713;DHT22;12035;49.978;8.298;2023-04-03T13:51:23;11.10;40.80
23713;DHT22;12035;49.978;8.298;2023-04-03T13:56:27;11.10;40.30
23713;DHT22;12035;49.978;8.298;2023-04-03T14:01:43;11.10;40.70
23713;DHT22;12035;49.978;8.298;2023-04-03T14:06:45;11.20;41.10
23713;DHT22;12035;49.978;8.298;2023-04-03T14:11:43;11.10;39.90
23713;DHT22;12035;49.978;8.298;2023-04-03T14:16:47;11.10;40.80
23713;DHT22;12035;49.978;8.298;2023-04-03T14:21:49;11.10;40.70
23713;DHT22;12035;49.978;8.298;2023-04-03T14:26:48;11.10;41.00
23713;DHT22;12035;49.978;8.298;2023-04-03T14:31:48;11.10;40.70
23713;DHT22;12035;49.978;8.298;2023-04-03T14:36:45;11.10;40.70
23713;DHT22;12035;49.978;8.298;2023-04-03T14:41:44;11.20;40.90
23713;DHT22;12035;49.978;8.298;2023-04-03T14:46:43;11.20;41.10
23713;DHT22;12035;49.978;8.298;2023-04-03T14:51:40;11.20;40.30
23713;DHT22;12035;49.978;8.298;2023-04-03T14:56:38;11.10;39.20
23713;DHT22;12035;49.978;8.298;2023-04-03T15:01:36;11.00;39.70
23713;DHT22;12035;49.978;8.298;2023-04-03T15:06:34;11.00;40.20
23713;DHT22;12035;49.978;8.298;2023-04-03T15:11:31;11.00;39.90
23713;DHT22;12035;49.978;8.298;2023-04-03T15:16:28;11.10;40.50
23713;DHT22;12035;49.978;8.298;2023-04-03T15:21:27;11.10;41.30
23713;DHT22;12035;49.978;8.298;2023-04-03T15:26:25;11.10;40.60
23713;DHT22;12035;49.978;8.298;2023-04-03T15:31:22;11.10;39.90
23713;DHT22;12035;49.978;8.298;2023-04-03T15:36:19;11.10;40.00
23713;DHT22;12035;49.978;8.298;2023-04-03T15:41:17;11.00;40.30
23713;DHT22;12035;49.978;8.298;2023-04-03T15:46:14;11.10;39.60
23713;DHT22;12035;49.978;8.298;2023-04-03T15:51:11;11.00;39.20
23713;DHT22;12035;49.978;8.298;2023-04-03T15:56:08;11.00;39.70
23713;DHT22;12035;49.978;8.298;2023-04-03T16:01:09;10.90;40.00
23713;DHT22;12035;49.978;8.298;2023-04-03T16:06:07;10.90;39.40
23713;DHT22;12035;49.978;8.298;2023-04-03T16:11:04;10.90;39.60
23713;DHT22;12035;49.978;8.298;2023-04-03T16:16:11;10.90;40.10
23713;DHT22;12035;49.978;8.298;2023-04-03T16:21:26;10.90;39.90
23713;DHT22;12035;49.978;8.298;2023-04-03T16:26:24;10.90;40.70
23713;DHT22;12035;49.978;8.298;2023-04-03T16:31:24;10.90;40.20
23713;DHT22;12035;49.978;8.298;2023-04-03T16:36:21;10.80;39.90
23713;DHT22;12035;49.978;8.298;2023-04-03T16:41:18;10.70;39.30
23713;DHT22;12035;49.978;8.298;2023-04-03T16:46:16;10.60;39.70
23713;DHT22;12035;49.978;8.298;2023-04-03T16:51:14;10.60;40.20
23713;DHT22;12035;49.978;8.298;2023-04-03T16:56:11;10.50;40.20
23713;DHT22;12035;49.978;8.298;2023-04-03T17:01:10;10.50;40.70
23713;DHT22;12035;49.978;8.298;2023-04-03T17:06:09;10.40;40.90
23713;DHT22;12035;49.978;8.298;2023-04-03T17:11:12;10.40;40.20
23713;DHT22;12035;49.978;8.298;2023-04-03T17:16:12;10.30;40.50
23713;DHT22;12035;49.978;8.298;2023-04-03T17:21:10;10.30;40.90
23713;DHT22;12035;49.978;8.298;2023-04-03T17:26:08;10.10;40.70
23713;DHT22;12035;49.978;8.298;2023-04-03T17:31:07;10.00;40.30
23713;DHT22;12035;49.978;8.298;2023-04-03T17:36:05;9.90;40.40
23713;DHT22;12035;49.978;8.298;2023-04-03T17:41:04;9.80;41.20
23713;DHT22;12035;49.978;8.298;2023-04-03T17:46:05;9.70;41.40
23713;DHT22;12035;49.978;8.298;2023-04-03T17:51:08;9.60;40.70
23713;DHT22;12035;49.978;8.298;2023-04-03T17:56:09;9.50;41.20
23713;DHT22;12035;49.978;8.298;2023-04-03T18:01:11;9.50;41.40
23713;DHT22;12035;49.978;8.298;2023-04-03T18:06:11;9.40;41.50
23713;DHT22;12035;49.978;8.298;2023-04-03T18:11:11;9.30;41.90
23713;DHT22;12035;49.978;8.298;2023-04-03T18:16:11;9.10;41.90
23713;DHT22;12035;49.978;8.298;2023-04-03T18:21:11;8.90;42.00
23713;DHT22;12035;49.978;8.298;2023-04-03T18:26:11;8.80;42.20
23713;DHT22;12035;49.978;8.298;2023-04-03T18:31:13;8.70;42.70
23713;DHT22;12035;49.978;8.298;2023-04-03T18:36:11;8.70;42.90
23713;DHT22;12035;49.978;8.298;2023-04-03T18:41:08;8.70;43.20
23713;DHT22;12035;49.978;8.298;2023-04-03T18:46:06;8.60;43.70
23713;DHT22;12035;49.978;8.298;2023-04-03T18:51:06;8.50;44.30
23713;DHT22;12035;49.978;8.298;2023-04-03T18:56:04;8.40;44.80
23713;DHT22;12035;49.978;8.298;2023-04-03T19:01:02;8.30;45.10
23713;DHT22;12035;49.978;8.298;2023-04-03T19:06:01;8.20;45.00
23713;DHT22;12035;49.978;8.298;2023-04-03T19:11:00;8.20;45.30
23713;DHT22;12035;49.978;8.298;2023-04-03T19:15:58;8.10;45.10
23713;DHT22;12035;49.978;8.298;2023-04-03T19:20:56;8.10;45.10
23713;DHT22;12035;49.978;8.298;2023-04-03T19:25:59;8.00;44.80
23713;DHT22;12035;49.978;8.298;2023-04-03T19:31:09;7.90;44.80
23713;DHT22;12035;49.978;8.298;2023-04-03T19:36:09;7.90;44.90
23713;DHT22;12035;49.978;8.298;2023-04-03T19:41:11;7.80;45.10
23713;DHT22;12035;49.978;8.298;2023-04-03T19:46:10;7.80;45.60
23713;DHT22;12035;49.978;8.298;2023-04-03T19:51:08;7.70;45.10
23713;DHT22;12035;49.978;8.298;2023-04-03T19:56:05;7.70;45.40
23713;DHT22;12035;49.978;8.298;2023-04-03T20:01:04;7.50;45.50
23713;DHT22;12035;49.978;8.298;2023-04-03T20:06:01;7.50;45.70
23713;DHT22;12035;49.978;8.298;2023-04-03T20:10:58;7.40;45.80
23713;DHT22;12035;49.978;8.298;2023-04-03T20:15:55;7.40;45.90
23713;DHT22;12035;49.978;8.298;2023-04-03T20:20:55;7.30;46.20
23713;DHT22;12035;49.978;8.298;2023-04-03T20:25:55;7.30;46.30
23713;DHT22;12035;49.978;8.298;2023-04-03T20:30:53;7.20;46.40
23713;DHT22;12035;49.978;8.298;2023-04-03T20:35:56;7.10;46.60
23713;DHT22;12035;49.978;8.298;2023-04-03T20:40:54;7.00;46.80
23713;DHT22;12035;49.978;8.298;2023-04-03T20:45:51;7.00;47.20
23713;DHT22;12035;49.978;8.298;2023-04-03T20:50:48;6.80;47.40
23713;DHT22;12035;49.978;8.298;2023-04-03T20:55:55;6.70;47.50
23713;DHT22;12035;49.978;8.298;2023-04-03T21:00:54;6.70;47.70
23713;DHT22;12035;49.978;8.298;2023-04-03T21:21:47;6.50;48.20
23713;DHT22;12035;49.978;8.298;2023-04-03T21:26:46;6.50;48.40
23713;DHT22;12035;49.978;8.298;2023-04-03T21:31:48;6.40;48.50
23713;DHT22;12035;49.978;8.298;2023-04-03T21:36:50;6.40;48.70
23713;DHT22;12035;49.978;8.298;2023-04-03T21:41:48;6.30;48.80
23713;DHT22;12035;49.978;8.298;2023-04-03T21:46:47;6.30;49.00
23713;DHT22;12035;49.978;8.298;2023-04-03T21:51:49;6.30;49.20
23713;DHT22;12035;49.978;8.298;2023-04-03T21:56:46;6.10;49.20
23713;DHT22;12035;49.978;8.298;2023-04-03T22:01:43;6.10;49.50
23713;DHT22;12035;49.978;8.298;2023-04-03T22:06:40;6.00;49.60
23713;DHT22;12035;49.978;8.298;2023-04-03T22:11:40;6.00;49.80
23713;DHT22;12035;49.978;8.298;2023-04-03T22:16:40;6.00;49.80
23713;DHT22;12035;49.978;8.298;2023-04-03T22:21:41;6.00;49.80
23713;DHT22;12035;49.978;8.298;2023-04-03T22:26:39;6.00;50.00
23713;DHT22;12035;49.978;8.298;2023-04-03T22:31:39;5.90;50.10
23713;DHT22;12035;49.978;8.298;2023-04-03T22:36:37;5.90;50.10
23713;DHT22;12035;49.978;8.298;2023-04-03T22:41:37;5.90;50.20
23713;DHT22;12035;49.978;8.298;2023-04-03T22:46:35;5.90;50.20
23713;DHT22;12035;49.978;8.298;2023-04-03T22:51:32;5.80;50.40
23713;DHT22;12035;49.978;8.298;2023-04-03T22:56:29;5.70;50.50
23713;DHT22;12035;49.978;8.298;2023-04-03T23:01:26;5.70;50.50
23713;DHT22;12035;49.978;8.298;2023-04-03T23:06:25;5.60;50.80
23713;DHT22;12035;49.978;8.298;2023-04-03T23:11:23;5.60;50.80
23713;DHT22;12035;49.978;8.298;2023-04-03T23:16:20;5.50;50.80
23713;DHT22;12035;49.978;8.298;2023-04-03T23:21:17;5.50;50.90
23713;DHT22;12035;49.978;8.298;2023-04-03T23:26:15;5.50;50.90
23713;DHT22;12035;49.978;8.298;2023-04-03T23:31:13;5.40;50.90
23713;DHT22;12035;49.978;8.298;2023-04-03T23:36:11;5.30;50.90
23713;DHT22;12035;49.978;8.298;2023-04-03T23:41:10;5.30;50.90
23713;DHT22;12035;49.978;8.298;2023-04-03T23:46:08;5.30;51.20
23713;DHT22;12035;49.978;8.298;2023-04-03T23:51:05;5.30;51.20
23713;DHT22;12035;49.978;8.298;2023-04-03T23:56:03;5.30;51.20
